createdAt,value
2023-03-14T00:00:42.409Z,11.78
2023-03-14T00:01:42.372Z,11.81
2023-03-14T00:02:42.717Z,11.71
2023-03-14T00:03:43.205Z,11.74
2023-03-14T00:04:44.306Z,11.78
2023-03-14T00:05:44.563Z,11.83
2023-03-14T00:06:44.578Z,11.81
2023-03-14T00:07:45.781Z,11.86
2023-03-14T00:08:46.680Z,11.8
2023-03-14T00:09:47.470Z,11.85
2023-03-14T00:10:48.019Z,11.88
2023-03-14T00:11:48.239Z,11.89
2023-03-14T00:12:49.295Z,11.86
2023-03-14T00:13:49.955Z,11.95
2023-03-14T00:14:50.443Z,11.93
2023-03-14T00:15:50.485Z,11.88
2023-03-14T00:16:51.028Z,11.88
2023-03-14T00:17:51.255Z,11.89
2023-03-14T00:18:52.201Z,12.05
2023-03-14T00:19:52.749Z,11.96
2023-03-14T00:20:52.991Z,11.99
2023-03-14T00:21:53.619Z,11.93
2023-03-14T00:22:54.159Z,11.96
2023-03-14T00:23:54.377Z,11.93
2023-03-14T00:24:54.664Z,12.02
2023-03-14T00:25:55.587Z,12.02
2023-03-14T00:26:55.828Z,12.03
2023-03-14T00:27:55.488Z,12.07
2023-03-14T00:28:56.975Z,12.03
2023-03-14T00:29:57.212Z,12.1
2023-03-14T00:30:57.579Z,12.15
2023-03-14T00:31:57.781Z,12.07
2023-03-14T00:32:58.666Z,12.05
2023-03-14T00:33:59.286Z,12.07
2023-03-14T00:34:59.672Z,12.12
2023-03-14T00:35:59.860Z,12.08
2023-03-14T00:37:00.322Z,12.21
2023-03-14T00:38:01.298Z,12.17
2023-03-14T00:39:01.409Z,12.2
2023-03-14T00:40:02.045Z,12.2
2023-03-14T00:41:03.033Z,12.15
2023-03-14T00:42:04.234Z,12.23
2023-03-14T00:43:04.146Z,12.21
2023-03-14T00:44:04.644Z,12.18
2023-03-14T00:45:05.377Z,12.21
2023-03-14T00:46:05.900Z,12.18
2023-03-14T00:47:06.970Z,12.2
2023-03-14T00:48:06.971Z,12.15
2023-03-14T00:49:07.618Z,12.1
2023-03-14T00:50:09.006Z,12.18
2023-03-14T00:51:09.551Z,12.23
2023-03-14T00:52:09.827Z,12.05
2023-03-14T00:53:10.793Z,12.18
2023-03-14T00:54:11.723Z,12.21
2023-03-14T00:55:13.196Z,12.1
2023-03-14T00:56:13.142Z,12.15
2023-03-14T00:57:13.657Z,12.05
2023-03-14T00:58:13.883Z,12.2
2023-03-14T00:59:14.083Z,12.08
2023-03-14T01:00:14.310Z,12.2
2023-03-14T01:01:15.003Z,12.18
2023-03-14T01:02:16.142Z,12.1
2023-03-14T01:03:17.129Z,12.15
2023-03-14T01:04:17.110Z,12.11
2023-03-14T01:05:18.790Z,12.07
2023-03-14T01:06:18.482Z,12.05
2023-03-14T01:07:19.561Z,12.12
2023-03-14T01:08:20.547Z,12.05
2023-03-14T01:09:20.789Z,12.08
2023-03-14T01:10:20.995Z,12.08
2023-03-14T01:11:21.675Z,12.05
2023-03-14T01:12:22.386Z,11.97
2023-03-14T01:13:23.605Z,11.93
2023-03-14T01:14:23.843Z,11.91
2023-03-14T01:15:24.094Z,11.85
2023-03-14T01:16:24.637Z,11.81
2023-03-14T01:17:25.087Z,11.73
2023-03-14T01:18:25.316Z,11.73
2023-03-14T01:19:25.111Z,11.73
2023-03-14T01:20:26.459Z,11.58
2023-03-14T01:21:27.407Z,11.58
2023-03-14T01:22:27.444Z,11.56
2023-03-14T01:23:28.381Z,11.48
2023-03-14T01:24:29.295Z,11.38
2023-03-14T01:25:30.021Z,11.4
2023-03-14T01:26:30.978Z,11.37
2023-03-14T01:27:31.238Z,11.33
2023-03-14T01:28:32.164Z,11.23
2023-03-14T01:29:33.369Z,11.1
2023-03-14T01:30:34.306Z,11.05
2023-03-14T01:31:34.784Z,10.92
2023-03-14T01:32:34.697Z,10.83
2023-03-14T01:33:34.842Z,10.87
2023-03-14T01:34:35.349Z,10.83
2023-03-14T01:35:36.555Z,10.89
2023-03-14T01:36:37.396Z,10.77
2023-03-14T01:37:36.654Z,10.79
2023-03-14T01:38:36.660Z,10.8
2023-03-14T01:39:37.649Z,10.58
2023-03-14T01:40:38.358Z,10.68
2023-03-14T01:41:38.580Z,10.58
2023-03-14T01:42:38.798Z,10.53
2023-03-14T01:43:39.282Z,10.49
2023-03-14T01:44:39.479Z,10.51
2023-03-14T01:45:40.628Z,10.46
2023-03-14T01:46:41.563Z,10.39
2023-03-14T01:47:41.766Z,10.27
2023-03-14T01:48:41.995Z,10.27
2023-03-14T01:49:42.651Z,10.17
2023-03-14T01:50:43.796Z,10.17
2023-03-14T01:51:44.087Z,10.1
2023-03-14T01:52:44.667Z,10.13
2023-03-14T01:53:45.157Z,9.97
2023-03-14T01:54:45.094Z,10.09
2023-03-14T01:55:46.136Z,10.03
2023-03-14T01:56:47.352Z,10.06
2023-03-14T01:57:48.003Z,10.09
2023-03-14T01:58:48.511Z,10.06
2023-03-14T01:59:48.457Z,9.97
2023-03-14T02:00:48.832Z,9.97
2023-03-14T02:01:49.612Z,9.94
2023-03-14T02:02:49.815Z,10.02
2023-03-14T02:03:50.317Z,9.88
2023-03-14T02:04:50.300Z,9.84
2023-03-14T02:05:50.666Z,9.84
2023-03-14T02:06:51.641Z,9.85
2023-03-14T02:07:51.667Z,9.74
2023-03-14T02:08:52.925Z,9.74
2023-03-14T02:09:53.148Z,9.64
2023-03-14T02:10:52.809Z,9.7
2023-03-14T02:11:54.061Z,9.66
2023-03-14T02:12:54.253Z,9.51
2023-03-14T02:13:55.488Z,9.54
2023-03-14T02:14:55.691Z,9.47
2023-03-14T02:15:56.097Z,9.44
2023-03-14T02:16:56.689Z,9.34
2023-03-14T02:17:56.664Z,9.36
2023-03-14T02:18:57.157Z,9.34
2023-03-14T02:19:57.109Z,9.31
2023-03-14T02:20:58.347Z,9.24
2023-03-14T02:21:58.620Z,9.13
2023-03-14T02:22:58.896Z,8.99
2023-03-14T02:23:59.839Z,8.99
2023-03-14T02:25:00.764Z,8.97
2023-03-14T02:26:00.951Z,9.05
2023-03-14T02:27:01.312Z,8.81
2023-03-14T02:28:02.239Z,8.78
2023-03-14T02:29:02.433Z,8.77
2023-03-14T02:30:02.356Z,8.75
2023-03-14T02:31:02.563Z,8.57
2023-03-14T02:32:03.729Z,8.61
2023-03-14T02:33:04.157Z,8.52
2023-03-14T02:34:04.078Z,8.53
2023-03-14T02:35:05.285Z,8.39
2023-03-14T02:36:05.997Z,8.38
2023-03-14T02:37:06.310Z,8.41
2023-03-14T02:38:06.836Z,8.41
2023-03-14T02:39:07.762Z,8.38
2023-03-14T02:40:07.410Z,8.39
2023-03-14T02:41:08.348Z,8.41
2023-03-14T02:42:09.549Z,8.41
2023-03-14T02:43:09.753Z,8.5
2023-03-14T02:44:09.728Z,8.53
2023-03-14T02:45:11.008Z,8.53
2023-03-14T02:46:11.265Z,8.6
2023-03-14T02:47:11.415Z,8.52
2023-03-14T02:48:11.614Z,8.59
2023-03-14T02:49:12.258Z,8.57
2023-03-14T02:50:13.899Z,8.69
2023-03-14T02:51:14.190Z,8.72
2023-03-14T02:52:14.149Z,8.74
2023-03-14T02:53:14.718Z,8.77
2023-03-14T02:54:14.633Z,8.78
2023-03-14T02:55:14.846Z,8.84
2023-03-14T02:56:16.168Z,8.82
2023-03-14T02:57:16.102Z,8.92
2023-03-14T02:58:16.789Z,8.96
2023-03-14T02:59:17.052Z,8.93
2023-03-14T03:00:17.712Z,8.97
2023-03-14T03:01:18.820Z,9
2023-03-14T03:02:19.160Z,9
2023-03-14T03:03:19.768Z,9
2023-03-14T03:04:19.885Z,8.97
2023-03-14T03:05:21.127Z,8.86
2023-03-14T03:06:21.914Z,8.9
2023-03-14T03:07:22.504Z,8.77
2023-03-14T03:08:23.092Z,8.79
2023-03-14T03:09:24.013Z,8.74
2023-03-14T03:10:24.942Z,8.77
2023-03-14T03:11:25.144Z,8.78
2023-03-14T03:12:25.378Z,8.79
2023-03-14T03:13:25.583Z,8.84
2023-03-14T03:14:26.793Z,8.75
2023-03-14T03:15:27.477Z,8.74
2023-03-14T03:16:28.442Z,8.84
2023-03-14T03:17:28.289Z,8.81
2023-03-14T03:18:29.524Z,8.81
2023-03-14T03:19:30.744Z,8.95
2023-03-14T03:20:30.953Z,8.97
2023-03-14T03:21:32.478Z,9.03
2023-03-14T03:22:32.763Z,8.99
2023-03-14T03:23:33.093Z,8.95
2023-03-14T03:24:33.807Z,9.08
2023-03-14T03:25:34.722Z,8.93
2023-03-14T03:26:35.070Z,8.97
2023-03-14T03:27:35.279Z,9.08
2023-03-14T03:28:35.774Z,9.02
2023-03-14T03:29:35.970Z,9.02
2023-03-14T03:30:36.673Z,9.11
2023-03-14T03:31:37.406Z,9.12
2023-03-14T03:32:38.440Z,9.12
2023-03-14T03:33:38.328Z,9.13
2023-03-14T03:34:38.816Z,9.11
2023-03-14T03:35:39.124Z,9.09
2023-03-14T03:36:39.585Z,9.11
2023-03-14T03:37:39.819Z,9.18
2023-03-14T03:38:40.351Z,9.13
2023-03-14T03:39:40.411Z,9.11
2023-03-14T03:40:40.649Z,9.15
2023-03-14T03:41:41.584Z,9.13
2023-03-14T03:42:41.955Z,9.13
2023-03-14T03:43:43.452Z,9.08
2023-03-14T03:44:43.810Z,9.08
2023-03-14T03:45:44.672Z,9.12
2023-03-14T03:46:45.018Z,9.08
2023-03-14T03:47:45.328Z,9.11
2023-03-14T03:48:45.952Z,9.15
2023-03-14T03:49:46.450Z,9.13
2023-03-14T03:50:46.972Z,9.21
2023-03-14T03:51:47.947Z,9.3
2023-03-14T03:52:47.609Z,9.19
2023-03-14T03:53:48.599Z,9.16
2023-03-14T03:54:49.813Z,9.26
2023-03-14T03:55:50.747Z,9.16
2023-03-14T03:56:51.518Z,9.29
2023-03-14T03:57:52.432Z,9.19
2023-03-14T03:58:53.034Z,9.19
2023-03-14T03:59:53.260Z,9.24
2023-03-14T04:00:53.196Z,9.24
2023-03-14T04:01:54.104Z,9.29
2023-03-14T04:02:55.117Z,9.26
2023-03-14T04:03:56.441Z,9.29
2023-03-14T04:04:56.818Z,9.13
2023-03-14T04:05:56.908Z,9.33
2023-03-14T04:06:57.667Z,9.19
2023-03-14T04:07:57.909Z,9.26
2023-03-14T04:08:58.521Z,9.27
2023-03-14T04:09:58.474Z,9.33
2023-03-14T04:10:59.102Z,9.27
2023-03-14T04:12:00.326Z,9.33
2023-03-14T04:13:00.539Z,9.27
2023-03-14T04:14:01.193Z,9.16
2023-03-14T04:15:01.403Z,9.27
2023-03-14T04:16:01.851Z,9.3
2023-03-14T04:17:02.071Z,9.3
2023-03-14T04:18:02.706Z,9.24
2023-03-14T04:19:03.642Z,9.24
2023-03-14T04:20:03.873Z,9.26
2023-03-14T04:21:04.795Z,9.29
2023-03-14T04:22:05.061Z,9.29
2023-03-14T04:23:05.280Z,9.26
2023-03-14T04:24:05.824Z,9.29
2023-03-14T04:25:05.646Z,9.29
2023-03-14T04:26:06.709Z,9.3
2023-03-14T04:27:07.729Z,9.26
2023-03-14T04:28:08.254Z,9.27
2023-03-14T04:29:08.738Z,9.34
2023-03-14T04:30:08.954Z,9.3
2023-03-14T04:31:09.263Z,9.37
2023-03-14T04:32:09.610Z,9.29
2023-03-14T04:33:10.910Z,9.31
2023-03-14T04:34:11.422Z,9.37
2023-03-14T04:35:11.792Z,9.33
2023-03-14T04:36:12.897Z,9.33
2023-03-14T04:37:14.126Z,9.31
2023-03-14T04:38:14.375Z,9.3
2023-03-14T04:39:15.055Z,9.22
2023-03-14T04:40:18.989Z,9.26
2023-03-14T04:41:15.694Z,9.24
2023-03-14T04:42:16.655Z,9.18
2023-03-14T04:43:17.616Z,9.11
2023-03-14T04:44:18.599Z,8.96
2023-03-14T04:45:19.244Z,8.99
2023-03-14T04:46:20.492Z,8.93
2023-03-14T04:47:20.501Z,8.96
2023-03-14T04:48:21.096Z,9.08
2023-03-14T04:49:21.327Z,9.09
2023-03-14T04:50:21.578Z,9.02
2023-03-14T04:51:22.511Z,9.09
2023-03-14T04:52:23.473Z,8.97
2023-03-14T04:53:24.128Z,8.95
2023-03-14T04:54:24.602Z,8.97
2023-03-14T04:55:25.259Z,9.09
2023-03-14T04:56:26.842Z,9.08
2023-03-14T04:57:27.600Z,9.09
2023-03-14T04:58:28.575Z,9.12
2023-03-14T04:59:29.502Z,9.03
2023-03-14T05:00:30.148Z,9.05
2023-03-14T05:01:30.828Z,9.09
2023-03-14T05:02:31.041Z,9.05
2023-03-14T05:03:31.832Z,9.13
2023-03-14T05:04:32.098Z,9.09
2023-03-14T05:05:33.036Z,9.11
2023-03-14T05:06:33.957Z,9.02
2023-03-14T05:07:35.041Z,9.05
2023-03-14T05:08:35.775Z,9.02
2023-03-14T05:09:36.013Z,9.05
2023-03-14T05:10:36.917Z,8.93
2023-03-14T05:11:37.163Z,8.97
2023-03-14T05:12:37.088Z,8.97
2023-03-14T05:13:40.776Z,9.11
2023-03-14T05:14:38.995Z,9.09
2023-03-14T05:15:39.506Z,9.08
2023-03-14T05:16:40.203Z,9
2023-03-14T05:17:40.597Z,9.05
2023-03-14T05:18:41.565Z,9.05
2023-03-14T05:19:42.540Z,9.09
2023-03-14T05:20:42.758Z,9.02
2023-03-14T05:21:43.258Z,9.15
2023-03-14T05:22:44.225Z,9.05
2023-03-14T05:23:44.502Z,9.05
2023-03-14T05:24:44.566Z,9.09
2023-03-14T05:25:46.108Z,9.08
2023-03-14T05:26:46.332Z,9.02
2023-03-14T05:27:47.350Z,9.09
2023-03-14T05:28:47.833Z,9
2023-03-14T05:29:48.047Z,9
2023-03-14T05:30:48.961Z,9.03
2023-03-14T05:31:49.350Z,9.03
2023-03-14T05:32:49.770Z,8.96
2023-03-14T05:33:50.252Z,8.99
2023-03-14T05:34:50.188Z,8.96
2023-03-14T05:35:50.975Z,8.96
2023-03-14T05:36:51.621Z,8.97
2023-03-14T05:37:52.468Z,9.08
2023-03-14T05:38:53.018Z,9.05
2023-03-14T05:39:53.506Z,8.95
2023-03-14T05:40:53.731Z,9.08
2023-03-14T05:41:54.377Z,9.03
2023-03-14T05:42:55.588Z,9.11
2023-03-14T05:43:55.515Z,9.02
2023-03-14T05:44:57.002Z,9.05
2023-03-14T05:45:57.438Z,9.02
2023-03-14T05:46:57.759Z,9.05
2023-03-14T05:47:58.505Z,9.03
2023-03-14T05:48:58.446Z,9.09
2023-03-14T05:49:59.475Z,8.97
2023-03-14T05:51:00.167Z,9.15
2023-03-14T05:52:01.088Z,9.09
2023-03-14T05:53:02.130Z,9.13
2023-03-14T05:54:02.714Z,9.11
2023-03-14T05:55:03.368Z,9.08
2023-03-14T05:56:04.306Z,9.11
2023-03-14T05:57:03.931Z,9.08
2023-03-14T05:58:04.278Z,9.09
2023-03-14T05:59:04.566Z,9.12
2023-03-14T06:00:05.477Z,9.09
2023-03-14T06:01:05.691Z,9.08
2023-03-14T06:02:06.834Z,9.09
2023-03-14T06:03:08.376Z,9.12
2023-03-14T06:04:08.466Z,9.09
2023-03-14T06:05:09.675Z,9.13
2023-03-14T06:06:09.895Z,9.02
2023-03-14T06:07:10.821Z,9.11
2023-03-14T06:08:11.478Z,9.11
2023-03-14T06:09:11.960Z,9.12
2023-03-14T06:10:12.612Z,9.09
2023-03-14T06:11:12.977Z,9.09
2023-03-14T06:12:13.917Z,9.11
2023-03-14T06:13:13.856Z,9.09
2023-03-14T06:14:15.087Z,9.09
2023-03-14T06:15:15.321Z,9.11
2023-03-14T06:16:15.710Z,9.11
2023-03-14T06:17:16.215Z,9.08
2023-03-14T06:18:17.307Z,9.13
2023-03-14T06:19:17.530Z,9.09
2023-03-14T06:20:18.255Z,9.13
2023-03-14T06:21:19.875Z,9.19
2023-03-14T06:22:20.086Z,9.18
2023-03-14T06:23:21.238Z,9.24
2023-03-14T06:24:21.488Z,9.26
2023-03-14T06:25:21.747Z,9.26
2023-03-14T06:26:22.667Z,9.27
2023-03-14T06:27:23.154Z,9.26
2023-03-14T06:28:26.405Z,9.29
2023-03-14T06:29:24.425Z,9.31
2023-03-14T06:30:25.353Z,9.3
2023-03-14T06:31:26.045Z,9.4
2023-03-14T06:32:26.403Z,9.39
2023-03-14T06:33:26.387Z,9.47
2023-03-14T06:34:27.769Z,9.44
2023-03-14T06:35:27.429Z,9.48
2023-03-14T06:36:28.505Z,9.48
2023-03-14T06:37:29.428Z,9.49
2023-03-14T06:38:30.830Z,9.54
2023-03-14T06:39:31.120Z,9.52
2023-03-14T06:40:31.209Z,9.54
2023-03-14T06:41:32.723Z,9.52
2023-03-14T06:42:33.358Z,9.56
2023-03-14T06:43:34.590Z,9.58
2023-03-14T06:44:34.498Z,9.54
2023-03-14T06:45:34.847Z,9.51
2023-03-14T06:46:35.993Z,9.48
2023-03-14T06:47:36.920Z,9.4
2023-03-14T06:48:37.496Z,9.36
2023-03-14T06:49:37.689Z,9.31
2023-03-14T06:50:37.862Z,9.33
2023-03-14T06:51:38.524Z,9.3
2023-03-14T06:52:38.896Z,9.22
2023-03-14T06:53:39.667Z,9.26
2023-03-14T06:54:39.950Z,9.34
2023-03-14T06:55:40.497Z,9.4
2023-03-14T06:56:41.128Z,9.31
2023-03-14T06:57:42.345Z,9.26
2023-03-14T06:58:42.153Z,9.37
2023-03-14T06:59:43.038Z,9.29
2023-03-14T07:00:43.664Z,9.31
2023-03-14T07:01:45.103Z,9.33
2023-03-14T07:02:48.756Z,9.31
2023-03-14T07:03:45.405Z,9.27
2023-03-14T07:04:47.193Z,9.29
2023-03-14T07:05:47.267Z,9.26
2023-03-14T07:06:47.505Z,9.3
2023-03-14T07:07:47.711Z,9.22
2023-03-14T07:08:48.797Z,9.33
2023-03-14T07:09:49.295Z,9.19
2023-03-14T07:10:49.193Z,9.3
2023-03-14T07:11:50.423Z,9.29
2023-03-14T07:12:50.657Z,9.26
2023-03-14T07:13:50.590Z,9.3
2023-03-14T07:14:51.673Z,9.33
2023-03-14T07:15:53.370Z,9.18
2023-03-14T07:16:53.537Z,9.34
2023-03-14T07:17:54.035Z,9.27
2023-03-14T07:18:54.138Z,9.29
2023-03-14T07:19:54.057Z,9.31
2023-03-14T07:20:57.415Z,9.29
2023-03-14T07:21:55.636Z,9.24
2023-03-14T07:22:56.564Z,9.27
2023-03-14T07:23:57.304Z,9.27
2023-03-14T07:24:57.714Z,9.36
2023-03-14T07:25:57.952Z,9.34
2023-03-14T07:26:58.524Z,9.29
2023-03-14T07:27:59.268Z,9.31
2023-03-14T07:28:59.540Z,9.34
2023-03-14T07:30:00.833Z,9.39
2023-03-14T07:31:00.739Z,9.34
2023-03-14T07:32:01.331Z,9.42
2023-03-14T07:33:01.807Z,9.47
2023-03-14T07:34:02.632Z,9.49
2023-03-14T07:35:03.852Z,9.45
2023-03-14T07:36:03.633Z,9.47
2023-03-14T07:37:04.106Z,9.48
2023-03-14T07:38:05.594Z,9.48
2023-03-14T07:39:06.285Z,9.44
2023-03-14T07:40:06.810Z,9.49
2023-03-14T07:41:07.060Z,9.51
2023-03-14T07:42:07.719Z,9.51
2023-03-14T07:43:08.928Z,9.44
2023-03-14T07:44:08.885Z,9.49
2023-03-14T07:45:09.408Z,9.49
2023-03-14T07:46:10.156Z,9.45
2023-03-14T07:47:12.650Z,9.47
2023-03-14T07:48:10.581Z,9.44
2023-03-14T07:49:11.321Z,9.44
2023-03-14T07:50:12.546Z,9.48
2023-03-14T07:51:12.771Z,9.51
2023-03-14T07:52:13.716Z,9.49
2023-03-14T07:53:13.998Z,9.49
2023-03-14T07:54:15.277Z,9.48
2023-03-14T07:55:16.110Z,9.51
2023-03-14T07:56:16.082Z,9.48
2023-03-14T07:57:17.023Z,9.49
2023-03-14T07:58:16.682Z,9.49
2023-03-14T07:59:17.088Z,9.51
2023-03-14T08:00:20.838Z,9.54
2023-03-14T08:01:18.422Z,9.59
2023-03-14T08:02:18.443Z,9.63
2023-03-14T08:03:19.536Z,9.58
2023-03-14T08:04:19.731Z,9.63
2023-03-14T08:05:19.949Z,9.58
2023-03-14T08:06:21.167Z,9.67
2023-03-14T08:07:21.380Z,9.56
2023-03-14T08:08:22.313Z,9.64
2023-03-14T08:09:22.992Z,9.69
2023-03-14T08:10:23.285Z,9.66
2023-03-14T08:11:23.905Z,9.7
2023-03-14T08:12:24.277Z,9.64
2023-03-14T08:13:25.716Z,9.63
2023-03-14T08:14:25.648Z,9.73
2023-03-14T08:15:25.866Z,9.74
2023-03-14T08:16:26.532Z,9.76
2023-03-14T08:17:29.279Z,9.77
2023-03-14T08:18:27.230Z,9.73
2023-03-14T08:19:27.411Z,9.74
2023-03-14T08:20:27.926Z,9.67
2023-03-14T08:21:27.875Z,9.63
2023-03-14T08:22:28.531Z,9.67
2023-03-14T08:23:29.171Z,9.7
2023-03-14T08:24:30.200Z,9.63
2023-03-14T08:25:30.328Z,9.67
2023-03-14T08:26:31.101Z,9.7
2023-03-14T08:27:31.731Z,9.7
2023-03-14T08:28:31.983Z,9.69
2023-03-14T08:29:32.359Z,9.64
2023-03-14T08:30:33.321Z,9.69
2023-03-14T08:31:34.170Z,9.63
2023-03-14T08:32:34.491Z,9.67
2023-03-14T08:33:35.457Z,9.63
2023-03-14T08:34:36.689Z,9.69
2023-03-14T08:35:36.680Z,9.63
2023-03-14T08:36:37.999Z,9.62
2023-03-14T08:37:38.325Z,9.69
2023-03-14T08:38:38.854Z,9.69
2023-03-14T08:39:39.281Z,9.77
2023-03-14T08:40:39.812Z,9.7
2023-03-14T08:41:40.465Z,9.64
2023-03-14T08:42:41.473Z,9.66
2023-03-14T08:43:42.432Z,9.55
2023-03-14T08:44:43.023Z,9.51
2023-03-14T08:45:43.019Z,9.51
2023-03-14T08:46:43.207Z,9.48
2023-03-14T08:47:43.987Z,9.47
2023-03-14T08:48:44.541Z,9.39
2023-03-14T08:49:44.883Z,9.34
2023-03-14T08:50:45.655Z,9.27
2023-03-14T08:51:45.862Z,9.34
2023-03-14T08:52:46.991Z,9.29
2023-03-14T08:53:47.459Z,9.34
2023-03-14T08:54:47.801Z,9.3
2023-03-14T08:55:47.933Z,9.3
2023-03-14T08:56:48.482Z,9.31
2023-03-14T08:57:48.734Z,9.33
2023-03-14T08:58:49.379Z,9.3
2023-03-14T08:59:49.846Z,9.31
2023-03-14T09:00:50.671Z,9.29
2023-03-14T09:01:50.724Z,9.36
2023-03-14T09:02:50.987Z,9.33
2023-03-14T09:03:51.760Z,9.31
2023-03-14T09:04:52.201Z,9.36
2023-03-14T09:05:52.551Z,9.29
2023-03-14T09:06:53.777Z,9.34
2023-03-14T09:07:54.720Z,9.15
2023-03-14T09:08:54.974Z,9.26
2023-03-14T09:09:55.297Z,9.24
2023-03-14T09:10:55.834Z,9.26
2023-03-14T09:11:56.121Z,9.21
2023-03-14T09:12:57.053Z,9.13
2023-03-14T09:13:58.035Z,9.15
2023-03-14T09:14:58.552Z,9.09
2023-03-14T09:15:59.181Z,9.18
2023-03-14T09:16:59.367Z,9.15
2023-03-14T09:17:59.912Z,9.09
2023-03-14T09:19:00.909Z,9.09
2023-03-14T09:20:01.355Z,9.19
2023-03-14T09:21:01.563Z,9.22
2023-03-14T09:22:02.785Z,9.19
2023-03-14T09:23:03.013Z,9.31
2023-03-14T09:24:03.241Z,9.27
2023-03-14T09:25:04.579Z,9.29
2023-03-14T09:26:04.764Z,9.29
2023-03-14T09:27:05.073Z,9.3
2023-03-14T09:28:05.599Z,9.26
2023-03-14T09:29:05.542Z,9.27
2023-03-14T09:30:06.582Z,9.29
2023-03-14T09:31:07.522Z,9.3
2023-03-14T09:32:07.728Z,9.3
2023-03-14T09:33:08.374Z,9.3
2023-03-14T09:34:08.606Z,9.4
2023-03-14T09:35:09.239Z,9.4
2023-03-14T09:36:09.217Z,9.36
2023-03-14T09:37:10.857Z,9.44
2023-03-14T09:38:11.348Z,9.48
2023-03-14T09:39:11.888Z,9.45
2023-03-14T09:40:13.657Z,9.49
2023-03-14T09:41:12.948Z,9.51
2023-03-14T09:42:13.233Z,9.54
2023-03-14T09:43:14.198Z,9.42
2023-03-14T09:44:14.858Z,9.44
2023-03-14T09:45:15.408Z,9.54
2023-03-14T09:46:15.565Z,9.55
2023-03-14T09:47:16.265Z,9.51
2023-03-14T09:48:16.476Z,9.59
2023-03-14T09:49:17.013Z,9.48
2023-03-14T09:50:17.743Z,9.54
2023-03-14T09:51:18.446Z,9.63
2023-03-14T09:52:19.100Z,9.63
2023-03-14T09:53:20.330Z,9.64
2023-03-14T09:54:20.821Z,9.67
2023-03-14T09:55:21.139Z,9.74
2023-03-14T09:56:21.904Z,9.72
2023-03-14T09:57:22.258Z,9.85
2023-03-14T09:58:22.977Z,9.76
2023-03-14T09:59:23.622Z,9.85
2023-03-14T10:00:24.116Z,9.88
2023-03-14T10:01:24.728Z,9.91
2023-03-14T10:02:25.530Z,9.95
2023-03-14T10:03:26.760Z,9.99
2023-03-14T10:04:27.445Z,10.02
2023-03-14T10:05:27.979Z,10.02
2023-03-14T10:06:28.506Z,10.21
2023-03-14T10:07:28.755Z,10.12
2023-03-14T10:08:29.307Z,10.31
2023-03-14T10:09:30.256Z,10.42
2023-03-14T10:10:31.419Z,10.45
2023-03-14T10:11:32.107Z,10.53
2023-03-14T10:12:32.640Z,10.59
2023-03-14T10:13:32.890Z,10.87
2023-03-14T10:14:33.165Z,11.25
2023-03-14T10:15:33.396Z,11.67
2023-03-14T10:16:34.502Z,12
2023-03-14T10:17:34.568Z,12.26
2023-03-14T10:18:35.606Z,12.5
2023-03-14T10:19:36.257Z,12.9
2023-03-14T10:20:36.852Z,13.31
2023-03-14T10:21:37.829Z,13.67
2023-03-14T10:22:37.797Z,14.12
2023-03-14T10:23:39.687Z,14.37
2023-03-14T10:24:39.477Z,14.77
2023-03-14T10:25:40.125Z,15.15
2023-03-14T10:26:40.719Z,15.43
2023-03-14T10:27:41.265Z,15.81
2023-03-14T10:28:41.493Z,15.7
2023-03-14T10:29:42.202Z,15.67
2023-03-14T10:30:43.711Z,15.43
2023-03-14T10:31:44.179Z,15.36
2023-03-14T10:32:44.869Z,15.18
2023-03-14T10:33:45.312Z,15.1
2023-03-14T10:34:45.588Z,15.05
2023-03-14T10:35:45.350Z,15.04
2023-03-14T10:36:45.965Z,14.97
2023-03-14T10:37:46.201Z,15.04
2023-03-14T10:38:46.446Z,15.04
2023-03-14T10:39:47.412Z,15.02
2023-03-14T10:40:48.539Z,14.96
2023-03-14T10:41:48.670Z,14.92
2023-03-14T10:42:49.949Z,14.94
2023-03-14T10:43:49.934Z,14.74
2023-03-14T10:44:50.171Z,14.61
2023-03-14T10:45:51.291Z,14.71
2023-03-14T10:46:52.151Z,14.59
2023-03-14T10:47:53.441Z,14.63
2023-03-14T10:48:53.946Z,14.58
2023-03-14T10:49:54.007Z,14.7
2023-03-14T10:50:54.622Z,14.85
2023-03-14T10:51:54.903Z,14.89
2023-03-14T10:53:08.103Z,15.05
2023-03-14T10:53:57.152Z,15.12
2023-03-14T10:54:57.405Z,15.29
2023-03-14T10:55:58.062Z,15.43
2023-03-14T10:56:58.340Z,15.43
2023-03-14T10:57:58.675Z,15.59
2023-03-14T10:58:59.344Z,15.55
2023-03-14T11:00:00.645Z,15.62
2023-03-14T11:01:01.365Z,15.62
2023-03-14T11:02:02.000Z,15.65
2023-03-14T11:03:02.652Z,15.52
2023-03-14T11:04:02.903Z,15.41
2023-03-14T11:05:04.143Z,15.29
2023-03-14T11:06:04.160Z,15.17
2023-03-14T11:07:05.888Z,15.17
2023-03-14T11:08:08.822Z,15.14
2023-03-14T11:09:05.925Z,15.07
2023-03-14T11:10:06.143Z,15.12
2023-03-14T11:11:07.508Z,15.04
2023-03-14T11:12:07.789Z,15.07
2023-03-14T11:13:08.380Z,14.92
2023-03-14T11:14:08.659Z,14.87
2023-03-14T11:15:08.901Z,14.87
2023-03-14T11:16:09.245Z,14.96
2023-03-14T11:17:10.310Z,15.11
2023-03-14T11:18:10.549Z,15.14
2023-03-14T11:19:10.853Z,15.07
2023-03-14T11:20:10.625Z,15.12
2023-03-14T11:21:11.780Z,15.11
2023-03-14T11:22:12.017Z,15.17
2023-03-14T11:23:11.990Z,15.15
2023-03-14T11:24:12.930Z,15.17
2023-03-14T11:25:13.290Z,15.14
2023-03-14T11:26:14.614Z,15.23
2023-03-14T11:27:15.674Z,15.26
2023-03-14T11:28:15.945Z,15.36
2023-03-14T11:29:16.890Z,15.32
2023-03-14T11:30:17.071Z,15.39
2023-03-14T11:31:18.087Z,15.32
2023-03-14T11:32:18.256Z,15.39
2023-03-14T11:33:18.515Z,15.44
2023-03-14T11:34:19.489Z,15.39
2023-03-14T11:35:20.733Z,15.48
2023-03-14T11:36:21.506Z,15.33
2023-03-14T11:37:21.778Z,15.35
2023-03-14T11:38:22.011Z,15.26
2023-03-14T11:39:22.530Z,15.27
2023-03-14T11:40:23.098Z,15.23
2023-03-14T11:41:23.786Z,15.27
2023-03-14T11:42:24.660Z,15.15
2023-03-14T11:43:25.578Z,15.17
2023-03-14T11:44:25.829Z,15.11
2023-03-14T11:45:26.403Z,15.07
2023-03-14T11:46:26.796Z,15.1
2023-03-14T11:47:26.833Z,15
2023-03-14T11:48:26.790Z,15.05
2023-03-14T11:49:27.745Z,14.99
2023-03-14T11:50:29.244Z,14.97
2023-03-14T11:51:29.946Z,15.04
2023-03-14T11:52:30.091Z,15.11
2023-03-14T11:53:30.621Z,15.1
2023-03-14T11:54:31.916Z,15.14
2023-03-14T11:55:32.424Z,15.17
2023-03-14T11:56:32.796Z,15.18
2023-03-14T11:57:33.766Z,15.11
2023-03-14T11:58:33.453Z,15.15
2023-03-14T11:59:33.622Z,15.07
2023-03-14T12:00:35.092Z,15.05
2023-03-14T12:01:34.917Z,15.14
2023-03-14T12:02:35.316Z,15.17
2023-03-14T12:03:35.664Z,15.19
2023-03-14T12:04:36.279Z,15.17
2023-03-14T12:05:37.283Z,15.14
2023-03-14T12:06:38.448Z,15.12
2023-03-14T12:07:38.958Z,15.14
2023-03-14T12:08:39.496Z,15.12
2023-03-14T12:09:40.772Z,15.17
2023-03-14T12:10:40.710Z,15.18
2023-03-14T12:11:42.094Z,15.15
2023-03-14T12:12:42.461Z,15.17
2023-03-14T12:13:43.313Z,15.17
2023-03-14T12:14:43.553Z,15.27
2023-03-14T12:15:44.220Z,15.48
2023-03-14T12:16:47.446Z,15.54
2023-03-14T12:17:45.660Z,15.81
2023-03-14T12:18:45.617Z,16.05
2023-03-14T12:19:46.449Z,16.13
2023-03-14T12:20:46.812Z,16.31
2023-03-14T12:21:47.605Z,16.29
2023-03-14T12:22:48.143Z,16.18
2023-03-14T12:23:49.027Z,16.12
2023-03-14T12:24:48.721Z,15.96
2023-03-14T12:25:49.223Z,15.92
2023-03-14T12:26:50.227Z,16.03
2023-03-14T12:27:50.320Z,15.84
2023-03-14T12:28:50.343Z,15.96
2023-03-14T12:29:51.595Z,15.94
2023-03-14T12:30:52.061Z,15.81
2023-03-14T12:31:52.992Z,15.57
2023-03-14T12:32:53.543Z,15.33
2023-03-14T12:33:53.879Z,15.07
2023-03-14T12:34:54.131Z,14.92
2023-03-14T12:35:54.266Z,14.7
2023-03-14T12:36:54.972Z,14.66
2023-03-14T12:37:55.282Z,14.67
2023-03-14T12:38:55.526Z,14.45
2023-03-14T12:39:55.855Z,14.31
2023-03-14T12:40:56.181Z,14
2023-03-14T12:41:57.414Z,14.07
2023-03-14T12:42:58.065Z,13.85
2023-03-14T12:43:58.952Z,13.85
2023-03-14T12:44:59.269Z,13.91
2023-03-14T12:45:59.961Z,13.8
2023-03-14T12:47:00.427Z,13.8
2023-03-14T12:48:01.362Z,13.82
2023-03-14T12:49:01.286Z,13.76
2023-03-14T12:50:01.824Z,13.79
2023-03-14T12:51:02.039Z,13.73
2023-03-14T12:52:03.152Z,13.89
2023-03-14T12:53:02.927Z,13.87
2023-03-14T12:54:03.200Z,13.82
2023-03-14T12:55:04.513Z,13.85
2023-03-14T12:56:04.988Z,13.82
2023-03-14T12:57:05.275Z,13.8
2023-03-14T12:58:05.248Z,13.78
2023-03-14T12:59:05.534Z,13.68
2023-03-14T13:00:06.801Z,13.65
2023-03-14T13:01:07.018Z,13.7
2023-03-14T13:02:07.284Z,13.78
2023-03-14T13:03:07.925Z,13.79
2023-03-14T13:04:09.402Z,13.82
2023-03-14T13:05:12.494Z,13.67
2023-03-14T13:06:10.810Z,13.68
2023-03-14T13:07:11.296Z,13.62
2023-03-14T13:08:11.811Z,13.58
2023-03-14T13:09:11.871Z,13.52
2023-03-14T13:10:12.570Z,13.49
2023-03-14T13:11:13.107Z,13.31
2023-03-14T13:12:14.221Z,13.26
2023-03-14T13:13:14.765Z,13.13
2023-03-14T13:14:15.338Z,13.05
2023-03-14T13:15:17.276Z,13.01
2023-03-14T13:16:15.808Z,12.81
2023-03-14T13:17:39.400Z,12.76
2023-03-14T13:18:16.268Z,12.84